createdAt,value
2023-05-31T00:00:20.070Z,3.450
2023-05-31T00:01:32.989Z,3.300
2023-05-31T00:02:26.673Z,3.500
2023-05-31T00:03:23.561Z,3.550
2023-05-31T00:04:24.554Z,3.450
2023-05-31T00:05:23.552Z,3.100
2023-05-31T00:06:24.659Z,3.400
2023-05-31T00:07:20.245Z,3.300
2023-05-31T00:08:27.469Z,3.550
2023-05-31T00:09:27.686Z,3.600
2023-05-31T00:10:22.374Z,3.700
2023-05-31T00:11:24.073Z,3.550
2023-05-31T00:12:22.208Z,3.200
2023-05-31T00:13:25.078Z,3.400
2023-05-31T00:14:20.508Z,3.200
2023-05-31T00:15:22.262Z,3.300
2023-05-31T00:16:52.338Z,3.350
2023-05-31T00:17:50.072Z,3.300
2023-05-31T00:18:27.334Z,3.400
2023-05-31T00:19:21.081Z,3.450
2023-05-31T00:20:24.613Z,3.600
2023-05-31T00:21:20.464Z,3.400
2023-05-31T00:22:32.736Z,3.400
2023-05-31T00:23:22.589Z,3.300
2023-05-31T00:24:22.558Z,3.400
2023-05-31T00:25:33.641Z,3.400
2023-05-31T00:26:28.506Z,3.400
2023-05-31T00:27:26.503Z,3.300
2023-05-31T00:28:21.657Z,3.300
2023-05-31T00:29:30.117Z,3.300
2023-05-31T00:30:22.847Z,3.800
2023-05-31T00:31:24.047Z,3.500
2023-05-31T00:32:23.422Z,3.300
2023-05-31T00:33:28.833Z,3.400
2023-05-31T00:34:21.775Z,3.500
2023-05-31T00:35:21.513Z,3.400
2023-05-31T00:36:31.030Z,3.300
2023-05-31T00:37:26.651Z,3.400
2023-05-31T00:38:22.609Z,3.400
2023-05-31T00:39:32.309Z,3.600
2023-05-31T00:40:30.409Z,3.150
2023-05-31T00:41:20.685Z,3.500
2023-05-31T00:42:21.225Z,3.450
2023-05-31T00:43:22.844Z,3.350
2023-05-31T00:44:28.738Z,3.500
2023-05-31T00:45:23.138Z,3.500
2023-05-31T00:46:32.416Z,3.600
2023-05-31T00:47:30.180Z,3.450
2023-05-31T00:48:24.446Z,3.600
2023-05-31T00:49:22.930Z,3.550
2023-05-31T00:50:26.748Z,3.550
2023-05-31T00:51:20.674Z,3.600
2023-05-31T00:52:23.731Z,3.400
2023-05-31T00:53:34.550Z,3.550
2023-05-31T00:54:28.230Z,3.500
2023-05-31T00:55:28.655Z,3.500
2023-05-31T00:56:20.324Z,3.400
2023-05-31T00:57:32.402Z,3.450
2023-05-31T00:58:26.178Z,3.250
2023-05-31T00:59:22.337Z,3.500
2023-05-31T01:00:23.846Z,3.200
2023-05-31T01:01:30.997Z,3.500
2023-05-31T01:02:30.902Z,3.600
2023-05-31T01:03:34.202Z,3.650
2023-05-31T01:04:42.724Z,3.500
2023-05-31T01:05:32.500Z,3.600
2023-05-31T01:10:26.600Z,3.400
2023-05-31T01:11:22.110Z,3.600
2023-05-31T01:12:27.515Z,3.300
2023-05-31T01:13:25.508Z,3.350
2023-05-31T01:15:43.841Z,3.750
2023-05-31T01:15:51.394Z,3.400
2023-05-31T01:21:30.420Z,3.300
2023-05-31T01:22:29.038Z,3.500
2023-05-31T01:23:26.685Z,3.300
2023-05-31T01:24:21.665Z,3.250
2023-05-31T01:25:31.274Z,3.300
2023-05-31T01:26:29.179Z,3.400
2023-05-31T01:27:25.269Z,3.700
2023-05-31T01:28:21.360Z,3.500
2023-05-31T01:29:20.642Z,3.200
2023-05-31T01:30:24.494Z,3.600
2023-05-31T01:31:22.537Z,3.450
2023-05-31T01:32:31.164Z,3.450
2023-05-31T01:33:26.167Z,3.500
2023-05-31T01:34:29.074Z,3.500
2023-05-31T01:35:24.391Z,3.500
2023-05-31T01:36:24.278Z,3.400
2023-05-31T01:37:24.321Z,3.400
2023-05-31T01:38:20.577Z,3.500
2023-05-31T01:39:29.998Z,3.350
2023-05-31T01:40:27.858Z,3.300
2023-05-31T01:41:22.234Z,3.400
2023-05-31T01:42:35.491Z,3.400
2023-05-31T01:43:44.993Z,3.500
2023-05-31T01:44:26.416Z,3.600
2023-05-31T01:45:20.413Z,3.600
2023-05-31T01:46:21.737Z,3.500
2023-05-31T01:47:28.278Z,3.550
2023-05-31T01:48:24.182Z,3.400
2023-05-31T01:49:27.108Z,3.550
2023-05-31T01:50:28.277Z,3.200
2023-05-31T01:51:30.275Z,3.400
2023-05-31T01:52:20.555Z,3.500
2023-05-31T01:53:27.245Z,3.600
2023-05-31T01:54:45.278Z,3.450
2023-05-31T01:55:24.633Z,3.300
2023-05-31T01:56:21.393Z,5.900
2023-05-31T01:57:21.625Z,3.200
2023-05-31T01:58:24.296Z,3.350
2023-05-31T01:59:23.258Z,3.500
2023-05-31T02:00:30.813Z,3.350
2023-05-31T02:01:27.852Z,3.350
2023-05-31T02:02:25.135Z,3.550
2023-05-31T02:03:38.928Z,3.400
2023-05-31T02:04:29.054Z,3.300
2023-05-31T02:05:22.585Z,3.400
2023-05-31T02:06:20.108Z,3.200
2023-05-31T02:07:21.113Z,3.400
2023-05-31T02:08:27.522Z,3.300
2023-05-31T02:09:22.303Z,3.450
2023-05-31T02:10:32.734Z,3.600
2023-05-31T02:11:32.972Z,3.400
2023-05-31T02:12:24.908Z,3.200
2023-05-31T02:13:22.554Z,3.450
2023-05-31T02:14:24.187Z,3.150
2023-05-31T02:15:21.692Z,3.200
2023-05-31T02:16:24.497Z,3.300
2023-05-31T02:17:34.741Z,3.350
2023-05-31T02:18:30.463Z,3.600
2023-05-31T02:19:27.529Z,3.300
2023-05-31T02:20:20.885Z,3.150
2023-05-31T02:21:30.931Z,3.400
2023-05-31T02:22:29.293Z,3.300
2023-05-31T02:23:23.472Z,3.350
2023-05-31T02:24:33.806Z,3.300
2023-05-31T02:25:30.357Z,3.300
2023-05-31T02:26:24.812Z,3.500
2023-05-31T02:27:21.684Z,3.500
2023-05-31T02:28:34.540Z,3.450
2023-05-31T02:29:26.538Z,3.100
2023-05-31T02:30:24.183Z,3.250
2023-05-31T02:31:33.309Z,3.200
2023-05-31T02:32:30.234Z,3.300
2023-05-31T02:33:24.505Z,3.100
2023-05-31T02:34:20.677Z,3.250
2023-05-31T02:35:22.813Z,3.150
2023-05-31T02:36:29.197Z,3.300
2023-05-31T02:37:22.772Z,3.300
2023-05-31T02:38:32.314Z,3.600
2023-05-31T02:39:30.223Z,3.500
2023-05-31T02:40:25.398Z,3.650
2023-05-31T02:41:21.150Z,3.200
2023-05-31T02:42:28.194Z,3.450
2023-05-31T02:43:27.067Z,3.300
2023-05-31T02:44:22.659Z,3.200
2023-05-31T02:45:20.341Z,3.300
2023-05-31T02:46:28.704Z,3.400
2023-05-31T02:47:29.709Z,3.250
2023-05-31T02:48:20.479Z,3.300
2023-05-31T02:49:30.282Z,3.300
2023-05-31T02:50:24.273Z,3.200
2023-05-31T02:51:23.145Z,3.300
2023-05-31T02:52:25.618Z,3.400
2023-05-31T02:53:30.230Z,3.350
2023-05-31T02:54:24.153Z,3.600
2023-05-31T02:55:22.109Z,3.450
2023-05-31T02:56:32.413Z,3.200
2023-05-31T02:57:28.091Z,3.200
2023-05-31T02:58:27.881Z,3.400
2023-05-31T02:59:28.329Z,3.400
2023-05-31T03:00:21.457Z,3.400
2023-05-31T03:01:24.413Z,3.300
2023-05-31T03:02:21.037Z,3.600
2023-05-31T03:03:31.191Z,3.200
2023-05-31T03:04:33.003Z,3.300
2023-05-31T03:05:24.186Z,3.300
2023-05-31T03:06:46.257Z,3.300
2023-05-31T03:07:27.167Z,3.050
2023-05-31T03:08:24.708Z,3.400
2023-05-31T03:09:20.564Z,3.500
2023-05-31T03:10:34.993Z,3.200
2023-05-31T03:11:26.791Z,3.200
2023-05-31T03:12:24.746Z,3.400
2023-05-31T03:13:21.116Z,3.450
2023-05-31T03:14:29.866Z,3.500
2023-05-31T03:15:26.716Z,3.400
2023-05-31T03:16:20.389Z,3.300
2023-05-31T03:17:30.656Z,3.300
2023-05-31T03:18:29.463Z,3.250
2023-05-31T03:19:22.523Z,3.300
2023-05-31T03:20:25.259Z,3.200
2023-05-31T03:21:29.938Z,2.800
2023-05-31T03:22:28.787Z,3.300
2023-05-31T03:23:20.307Z,2.900
2023-05-31T03:24:31.902Z,3.000
2023-05-31T03:25:41.886Z,3.500
2023-05-31T03:26:23.878Z,3.100
2023-05-31T03:27:24.685Z,3.200
2023-05-31T03:28:22.519Z,3.250
2023-05-31T03:29:25.481Z,3.300
2023-05-31T03:30:22.113Z,3.300
2023-05-31T03:31:19.791Z,3.450
2023-05-31T03:32:29.294Z,3.600
2023-05-31T03:33:22.493Z,3.600
2023-05-31T03:34:27.658Z,3.200
2023-05-31T03:35:30.264Z,3.550
2023-05-31T03:36:24.731Z,3.400
2023-05-31T03:37:20.731Z,3.400
2023-05-31T03:38:25.012Z,3.250
2023-05-31T03:39:26.781Z,3.350
2023-05-31T03:40:25.192Z,3.600
2023-05-31T03:41:34.480Z,3.250
2023-05-31T03:42:30.064Z,3.500
2023-05-31T03:43:26.379Z,3.500
2023-05-31T03:44:20.700Z,3.500
2023-05-31T03:45:26.443Z,3.500
2023-05-31T03:46:28.621Z,3.250
2023-05-31T03:47:23.193Z,3.500
2023-05-31T03:48:35.473Z,3.500
2023-05-31T03:49:20.274Z,3.300
2023-05-31T03:50:28.241Z,3.700
2023-05-31T03:51:20.594Z,3.300
2023-05-31T03:52:30.395Z,3.650
2023-05-31T03:53:22.607Z,3.400
2023-05-31T03:54:22.301Z,3.450
2023-05-31T03:55:38.662Z,3.300
2023-05-31T03:56:23.655Z,3.400
2023-05-31T03:57:25.992Z,3.600
2023-05-31T03:58:20.584Z,3.400
2023-05-31T03:59:34.048Z,3.600
2023-05-31T04:00:27.787Z,3.500
2023-05-31T04:01:23.226Z,3.500
2023-05-31T04:02:33.962Z,3.250
2023-05-31T04:03:29.266Z,3.500
2023-05-31T04:04:25.398Z,3.450
2023-05-31T04:05:20.561Z,3.600
2023-05-31T04:06:20.804Z,3.550
2023-05-31T04:07:21.646Z,3.500
2023-05-31T04:08:26.642Z,3.550
2023-05-31T04:09:34.255Z,3.450
2023-05-31T04:10:29.854Z,3.300
2023-05-31T04:11:23.831Z,3.250
2023-05-31T04:12:20.441Z,3.200
2023-05-31T04:13:26.253Z,3.300
2023-05-31T04:14:26.649Z,3.000
2023-05-31T04:15:22.570Z,3.500
2023-05-31T04:16:22.189Z,3.250
2023-05-31T04:17:31.367Z,3.350
2023-05-31T04:18:20.463Z,3.900
2023-05-31T04:19:21.935Z,3.450
2023-05-31T04:20:32.394Z,3.300
2023-05-31T04:21:22.024Z,3.500
2023-05-31T04:22:22.352Z,3.250
2023-05-31T04:23:27.734Z,3.300
2023-05-31T04:24:29.754Z,3.250
2023-05-31T04:25:25.379Z,3.100
2023-05-31T04:26:22.485Z,3.150
2023-05-31T04:27:32.230Z,3.400
2023-05-31T04:28:26.732Z,3.000
2023-05-31T04:29:38.033Z,3.000
2023-05-31T04:30:30.675Z,3.150
2023-05-31T04:31:22.452Z,3.000
2023-05-31T04:32:28.670Z,3.400
2023-05-31T04:33:20.552Z,3.400
2023-05-31T04:34:32.250Z,3.600
2023-05-31T04:35:26.708Z,3.500
2023-05-31T04:36:24.623Z,3.250
2023-05-31T04:37:36.097Z,3.350
2023-05-31T04:38:28.908Z,3.700
2023-05-31T04:39:25.744Z,3.200
2023-05-31T04:40:20.854Z,3.050
2023-05-31T04:41:30.548Z,3.300
2023-05-31T04:42:27.745Z,3.200
2023-05-31T04:43:24.526Z,3.000
2023-05-31T04:44:20.521Z,3.300
2023-05-31T04:45:34.139Z,3.350
2023-05-31T04:46:24.665Z,3.100
2023-05-31T04:47:20.907Z,3.150
2023-05-31T04:48:30.604Z,2.700
2023-05-31T04:49:27.892Z,3.100
2023-05-31T04:50:22.555Z,3.100
2023-05-31T04:51:26.117Z,2.900
2023-05-31T04:52:28.981Z,3.550
2023-05-31T04:53:24.276Z,3.500
2023-05-31T04:54:21.738Z,3.050
2023-05-31T04:55:30.438Z,3.000
2023-05-31T04:56:28.137Z,3.200
2023-05-31T04:57:22.598Z,3.000
2023-05-31T04:58:29.084Z,2.900
2023-05-31T04:59:21.916Z,3.200
2023-05-31T05:00:24.423Z,3.100
2023-05-31T05:01:20.482Z,3.200
2023-05-31T05:02:32.061Z,3.250
2023-05-31T05:03:27.359Z,3.100
2023-05-31T05:04:24.557Z,3.050
2023-05-31T05:05:19.542Z,3.250
2023-05-31T05:06:25.333Z,3.100
2023-05-31T05:07:24.505Z,3.200
2023-05-31T05:08:22.246Z,3.050
2023-05-31T05:09:23.321Z,3.150
2023-05-31T05:10:26.166Z,3.100
2023-05-31T05:11:24.232Z,3.250
2023-05-31T05:12:35.066Z,2.700
2023-05-31T05:13:29.884Z,3.100
2023-05-31T05:14:26.395Z,3.150
2023-05-31T05:15:20.239Z,3.300
2023-05-31T05:16:28.267Z,2.950
2023-05-31T05:17:19.602Z,3.300
2023-05-31T05:18:22.445Z,3.200
2023-05-31T05:19:25.905Z,3.150
2023-05-31T05:20:29.634Z,3.000
2023-05-31T05:21:25.628Z,2.800
2023-05-31T05:22:21.381Z,3.200
2023-05-31T05:23:20.517Z,3.100
2023-05-31T05:24:24.671Z,3.000
2023-05-31T05:25:22.409Z,3.300
2023-05-31T05:26:29.192Z,3.100
2023-05-31T05:27:28.652Z,3.000
2023-05-31T05:28:24.611Z,2.950
2023-05-31T05:29:20.315Z,3.000
2023-05-31T05:30:23.611Z,3.150
2023-05-31T05:31:27.911Z,3.300
2023-05-31T05:32:22.814Z,3.000
2023-05-31T05:33:32.732Z,3.000
2023-05-31T05:34:28.713Z,3.000
2023-05-31T05:35:19.900Z,2.800
2023-05-31T05:36:20.090Z,3.100
2023-05-31T05:37:21.426Z,3.150
2023-05-31T05:38:26.652Z,3.000
2023-05-31T05:39:22.737Z,2.900
2023-05-31T05:40:36.862Z,3.100
2023-05-31T05:41:21.873Z,3.000
2023-05-31T05:42:26.632Z,3.150
2023-05-31T05:43:20.971Z,3.100
2023-05-31T05:44:24.068Z,3.000
2023-05-31T05:45:26.807Z,2.950
2023-05-31T05:46:24.246Z,2.900
2023-05-31T05:47:31.490Z,3.300
2023-05-31T05:48:25.206Z,2.950
2023-05-31T05:49:26.915Z,3.200
2023-05-31T05:50:21.398Z,3.100
2023-05-31T05:51:28.481Z,3.000
2023-05-31T05:52:23.302Z,2.950
2023-05-31T05:53:22.729Z,3.150
2023-05-31T05:54:26.452Z,2.900
2023-05-31T05:55:20.588Z,3.250
2023-05-31T05:56:26.949Z,3.000
2023-05-31T05:57:20.416Z,2.950
2023-05-31T05:58:28.826Z,2.900
2023-05-31T05:59:26.612Z,2.800
2023-05-31T06:00:23.185Z,3.000
2023-05-31T06:01:36.185Z,3.100
2023-05-31T06:02:24.372Z,3.050
2023-05-31T06:03:24.818Z,2.900
2023-05-31T06:04:20.438Z,2.800
2023-05-31T06:05:31.192Z,3.150
2023-05-31T06:06:30.890Z,3.050
2023-05-31T06:07:22.702Z,2.900
2023-05-31T06:08:35.038Z,3.250
2023-05-31T06:09:24.958Z,2.950
2023-05-31T06:10:21.808Z,3.050
2023-05-31T06:11:51.068Z,3.000
2023-05-31T06:12:31.872Z,2.800
2023-05-31T06:13:28.417Z,3.050
2023-05-31T06:14:22.820Z,2.900
2023-05-31T06:15:28.880Z,2.750
2023-05-31T06:16:30.300Z,2.900
2023-05-31T06:17:24.920Z,2.900
2023-05-31T06:18:20.616Z,3.100
2023-05-31T06:19:33.507Z,3.100
2023-05-31T06:20:27.328Z,3.000
2023-05-31T06:21:23.622Z,3.200
2023-05-31T06:22:24.678Z,3.050
2023-05-31T06:23:29.650Z,3.100
2023-05-31T06:24:29.743Z,3.200
2023-05-31T06:25:21.930Z,3.050
2023-05-31T06:26:27.504Z,3.200
2023-05-31T06:27:26.342Z,2.750
2023-05-31T06:28:22.505Z,3.200
2023-05-31T06:29:29.437Z,2.800
2023-05-31T06:30:20.152Z,2.850
2023-05-31T06:31:24.194Z,2.800
2023-05-31T06:32:22.616Z,2.750
2023-05-31T06:33:20.198Z,3.100
2023-05-31T06:34:31.591Z,3.000
2023-05-31T06:35:24.889Z,2.800
2023-05-31T06:36:32.497Z,2.850
2023-05-31T06:37:25.940Z,2.800
2023-05-31T06:38:42.954Z,3.350
2023-05-31T06:39:21.622Z,3.300
2023-05-31T06:40:23.836Z,2.900
2023-05-31T06:41:27.356Z,3.000
2023-05-31T06:42:24.401Z,3.200
2023-05-31T06:43:27.669Z,3.000
2023-05-31T06:44:30.800Z,2.900
2023-05-31T06:45:21.026Z,3.000
2023-05-31T06:46:22.959Z,2.900
2023-05-31T06:47:32.391Z,3.000
2023-05-31T06:48:21.386Z,3.000
2023-05-31T06:49:24.042Z,3.150
2023-05-31T06:50:32.610Z,3.050
2023-05-31T06:51:28.357Z,2.600
2023-05-31T06:52:27.030Z,3.050
2023-05-31T06:53:21.407Z,2.800
2023-05-31T06:54:26.663Z,2.950
2023-05-31T06:55:27.313Z,3.150
2023-05-31T06:56:23.633Z,2.900
2023-05-31T06:57:21.062Z,3.100
2023-05-31T06:58:28.758Z,3.000
2023-05-31T06:59:24.418Z,2.700
2023-05-31T07:00:23.692Z,2.900
2023-05-31T07:01:30.632Z,2.700
2023-05-31T07:02:30.983Z,2.800
2023-05-31T07:03:23.228Z,2.750
2023-05-31T07:04:23.304Z,2.900
2023-05-31T07:05:23.103Z,2.850
2023-05-31T07:06:24.392Z,2.800
2023-05-31T07:07:20.738Z,3.200
2023-05-31T07:08:30.359Z,2.900
2023-05-31T07:09:26.582Z,3.000
2023-05-31T07:10:23.133Z,2.850
2023-05-31T07:11:32.901Z,2.900
2023-05-31T07:12:28.580Z,2.950
2023-05-31T07:13:26.234Z,2.600
2023-05-31T07:14:20.397Z,2.850
2023-05-31T07:15:23.347Z,3.100
2023-05-31T07:16:26.449Z,3.500
2023-05-31T07:17:22.895Z,3.250
2023-05-31T07:18:23.256Z,2.950
2023-05-31T07:19:29.230Z,2.900
2023-05-31T07:20:25.951Z,2.950
2023-05-31T07:21:20.771Z,3.000
2023-05-31T07:22:29.073Z,3.100
2023-05-31T07:23:20.416Z,3.100
2023-05-31T07:24:22.789Z,3.000
2023-05-31T07:25:27.381Z,2.900
2023-05-31T07:26:20.508Z,2.650
2023-05-31T07:27:24.596Z,2.800
2023-05-31T07:28:20.610Z,3.000
2023-05-31T07:29:28.539Z,3.200
2023-05-31T07:30:29.222Z,3.000
2023-05-31T07:31:22.320Z,2.800
2023-05-31T07:32:32.893Z,2.750
2023-05-31T07:33:28.729Z,2.950
2023-05-31T07:34:24.513Z,2.850
2023-05-31T07:35:20.628Z,2.700
2023-05-31T07:36:30.845Z,2.800
2023-05-31T07:37:27.814Z,2.900
2023-05-31T07:38:22.468Z,2.800
2023-05-31T07:39:37.431Z,3.050
2023-05-31T07:40:25.834Z,2.900
2023-05-31T07:41:24.121Z,2.800
2023-05-31T07:42:20.723Z,2.700
2023-05-31T07:43:32.949Z,2.800
2023-05-31T07:44:20.398Z,2.700
2023-05-31T07:45:26.371Z,3.100
2023-05-31T07:46:32.786Z,2.700
2023-05-31T07:47:28.984Z,2.600
2023-05-31T07:48:26.519Z,2.750
2023-05-31T07:49:20.336Z,2.700
2023-05-31T07:50:22.782Z,2.800
2023-05-31T07:51:24.946Z,2.950
2023-05-31T07:52:22.838Z,2.600
2023-05-31T07:53:23.337Z,2.600
2023-05-31T07:54:28.819Z,2.750
2023-05-31T07:55:24.598Z,3.100
2023-05-31T07:56:20.442Z,2.950
2023-05-31T07:57:32.040Z,2.900
2023-05-31T07:58:26.768Z,2.800
2023-05-31T07:59:22.610Z,2.950
2023-05-31T08:00:29.563Z,2.850
2023-05-31T08:01:20.696Z,3.050
2023-05-31T08:02:24.615Z,2.600
2023-05-31T08:03:28.993Z,2.700
2023-05-31T08:04:20.438Z,3.200
2023-05-31T08:05:26.873Z,2.900
2023-05-31T08:06:22.794Z,2.950
2023-05-31T08:07:24.691Z,2.800
2023-05-31T08:08:31.002Z,2.700
2023-05-31T08:09:24.658Z,2.900
2023-05-31T08:10:20.445Z,3.150
2023-05-31T08:11:24.784Z,2.900
2023-05-31T08:12:31.705Z,3.100
2023-05-31T08:13:23.153Z,3.100
2023-05-31T08:14:33.424Z,3.000
2023-05-31T08:15:30.236Z,2.700
2023-05-31T08:16:20.139Z,3.100
2023-05-31T08:17:20.854Z,2.850
2023-05-31T08:18:21.653Z,2.800
2023-05-31T08:19:21.901Z,2.900
2023-05-31T08:20:22.868Z,2.800
2023-05-31T08:21:32.457Z,2.950
2023-05-31T08:22:31.262Z,3.200
2023-05-31T08:23:24.640Z,2.800
2023-05-31T08:24:22.842Z,2.850
2023-05-31T08:25:34.788Z,2.650
2023-05-31T08:26:26.205Z,2.700
2023-05-31T08:27:22.629Z,2.700
2023-05-31T08:28:34.913Z,2.700
2023-05-31T08:29:28.639Z,2.800
2023-05-31T08:30:26.955Z,3.000
2023-05-31T08:31:35.986Z,2.900
2023-05-31T08:32:33.224Z,2.700
2023-05-31T08:33:28.362Z,3.100
2023-05-31T08:34:24.288Z,2.900
2023-05-31T08:35:24.486Z,2.950
2023-05-31T08:36:28.158Z,2.700
2023-05-31T08:37:25.185Z,2.800
2023-05-31T08:38:21.942Z,2.950
2023-05-31T08:39:30.849Z,2.700
2023-05-31T08:40:26.317Z,2.850
2023-05-31T08:41:22.301Z,3.000
2023-05-31T08:42:22.468Z,3.200
2023-05-31T08:43:28.966Z,2.750
2023-05-31T08:44:24.224Z,2.700
2023-05-31T08:45:21.397Z,2.600
2023-05-31T08:46:21.994Z,2.700
2023-05-31T08:47:26.977Z,2.900
2023-05-31T08:48:22.648Z,2.700
2023-05-31T08:49:24.923Z,2.700
2023-05-31T08:50:30.347Z,2.850
2023-05-31T08:51:25.220Z,2.700
2023-05-31T08:52:20.530Z,2.950
2023-05-31T08:53:27.882Z,3.050
2023-05-31T08:54:27.734Z,3.000
2023-05-31T08:55:24.362Z,3.100
2023-05-31T08:56:24.602Z,2.850
2023-05-31T08:57:22.661Z,2.600
2023-05-31T08:58:25.807Z,2.950
2023-05-31T08:59:20.305Z,3.000
2023-05-31T09:00:44.591Z,3.050
2023-05-31T09:01:23.209Z,2.900
2023-05-31T09:02:24.389Z,2.900
2023-05-31T09:03:27.207Z,3.050
2023-05-31T09:04:31.409Z,2.900
2023-05-31T09:05:24.703Z,2.800
2023-05-31T09:06:23.071Z,2.950
2023-05-31T09:07:22.642Z,3.050
2023-05-31T09:08:26.772Z,2.800
2023-05-31T09:09:20.384Z,2.800
2023-05-31T09:10:32.665Z,2.900
2023-05-31T09:11:30.314Z,2.900
2023-05-31T09:12:24.894Z,2.750
2023-05-31T09:13:21.127Z,2.800
2023-05-31T09:14:21.376Z,2.850
2023-05-31T09:15:26.716Z,2.850
2023-05-31T09:16:25.001Z,2.900
2023-05-31T09:17:33.584Z,3.000
2023-05-31T09:18:28.913Z,3.300
2023-05-31T09:19:28.725Z,2.950
2023-05-31T09:20:20.940Z,2.700
2023-05-31T09:21:31.863Z,2.900
2023-05-31T09:22:26.733Z,2.900
2023-05-31T09:23:24.099Z,2.750
2023-05-31T09:24:21.874Z,2.800
2023-05-31T09:25:28.736Z,2.800
2023-05-31T09:26:24.741Z,2.800
2023-05-31T09:27:21.408Z,2.850
2023-05-31T09:28:32.188Z,3.200
2023-05-31T09:29:28.688Z,3.000
2023-05-31T09:30:23.711Z,2.750
2023-05-31T09:31:23.277Z,3.100
2023-05-31T09:32:28.687Z,3.050
2023-05-31T09:33:25.187Z,2.900
2023-05-31T09:34:23.847Z,2.900
2023-05-31T09:35:22.073Z,2.900
2023-05-31T09:36:26.551Z,3.100
2023-05-31T09:37:22.725Z,3.000
2023-05-31T09:38:28.900Z,3.000
2023-05-31T09:39:23.115Z,2.800
2023-05-31T09:40:24.824Z,3.000
2023-05-31T09:41:20.632Z,2.750
2023-05-31T09:42:25.996Z,2.800
2023-05-31T09:43:28.850Z,3.250
2023-05-31T09:44:22.667Z,3.000
2023-05-31T09:45:33.265Z,3.000
2023-05-31T09:46:28.352Z,3.350
2023-05-31T09:47:22.055Z,2.800
2023-05-31T09:48:24.848Z,2.950
2023-05-31T09:49:31.604Z,3.100
2023-05-31T09:50:23.885Z,2.800
2023-05-31T09:51:25.012Z,3.000
2023-05-31T09:52:33.001Z,2.850
2023-05-31T09:53:31.307Z,2.900
2023-05-31T09:54:27.703Z,3.200
2023-05-31T09:55:20.629Z,3.000
2023-05-31T09:56:31.028Z,2.950
2023-05-31T09:57:29.366Z,3.100
2023-05-31T09:58:22.692Z,2.700
2023-05-31T09:59:22.528Z,2.700
2023-05-31T10:00:29.472Z,2.950
2023-05-31T10:01:27.223Z,3.400
2023-05-31T10:02:20.618Z,2.900
2023-05-31T10:03:30.841Z,2.900
2023-05-31T10:04:27.188Z,2.850
2023-05-31T10:05:22.446Z,2.700
2023-05-31T10:06:34.712Z,2.900
2023-05-31T10:07:29.371Z,3.100
2023-05-31T10:08:26.735Z,3.200
2023-05-31T10:09:20.495Z,3.200
2023-05-31T10:10:30.844Z,2.800
2023-05-31T10:11:32.547Z,2.950
2023-05-31T10:12:23.014Z,3.050
2023-05-31T10:13:23.179Z,2.800
2023-05-31T10:14:29.837Z,2.800
2023-05-31T10:15:25.721Z,3.200
2023-05-31T10:16:22.847Z,2.950
2023-05-31T10:17:20.818Z,2.950
2023-05-31T10:18:27.449Z,2.900
2023-05-31T10:19:22.951Z,2.950
2023-05-31T10:20:26.611Z,3.100
2023-05-31T10:21:29.019Z,2.800
2023-05-31T10:22:29.196Z,3.050
2023-05-31T10:23:22.008Z,2.950
2023-05-31T10:24:26.974Z,2.900
2023-05-31T10:25:29.004Z,2.900
2023-05-31T10:26:22.933Z,3.000
2023-05-31T10:27:19.482Z,3.000
2023-05-31T10:28:22.962Z,3.000
2023-05-31T10:29:27.324Z,3.300
2023-05-31T10:30:21.006Z,3.400
2023-05-31T10:31:31.822Z,3.150
2023-05-31T10:32:22.156Z,2.800
2023-05-31T10:33:26.225Z,3.100
2023-05-31T10:34:19.988Z,2.900
2023-05-31T10:35:30.787Z,2.750
2023-05-31T10:36:20.648Z,3.100
2023-05-31T10:37:22.091Z,3.050
2023-05-31T10:38:33.217Z,3.300
2023-05-31T10:39:30.327Z,3.150
2023-05-31T10:40:23.528Z,3.000
2023-05-31T10:41:27.019Z,3.300
2023-05-31T10:42:29.941Z,3.450
2023-05-31T10:43:24.789Z,3.500
2023-05-31T10:44:22.578Z,3.150
2023-05-31T10:45:32.590Z,3.150
2023-05-31T10:46:27.371Z,3.250
2023-05-31T10:47:23.944Z,2.900
2023-05-31T10:48:25.777Z,2.900
2023-05-31T10:49:28.530Z,2.800
2023-05-31T10:50:31.078Z,2.950
2023-05-31T10:51:22.522Z,2.900
2023-05-31T10:52:24.873Z,3.200
2023-05-31T10:53:28.073Z,3.350
2023-05-31T10:54:22.799Z,3.050
2023-05-31T10:55:22.111Z,3.000
2023-05-31T10:56:29.231Z,2.950
2023-05-31T10:57:25.389Z,2.800
2023-05-31T10:58:22.186Z,2.700
2023-05-31T10:59:25.283Z,3.000
2023-05-31T11:00:26.913Z,2.950
2023-05-31T11:01:25.720Z,3.000
2023-05-31T11:02:23.970Z,2.900
2023-05-31T11:03:29.038Z,3.000
2023-05-31T11:04:26.181Z,2.950
2023-05-31T11:05:21.446Z,2.750
2023-05-31T11:06:24.132Z,2.900
2023-05-31T11:07:29.678Z,3.050
2023-05-31T11:08:22.595Z,2.950
2023-05-31T11:09:27.999Z,3.150
2023-05-31T11:10:23.334Z,3.100
2023-05-31T11:11:25.308Z,2.850
2023-05-31T11:12:23.638Z,3.000
2023-05-31T11:13:34.828Z,3.150
2023-05-31T11:14:20.436Z,3.100
2023-05-31T11:15:24.281Z,3.000
2023-05-31T11:16:34.589Z,2.600
2023-05-31T11:17:26.119Z,2.900
2023-05-31T11:18:26.937Z,2.900
2023-05-31T11:19:20.505Z,2.900
2023-05-31T11:20:31.434Z,3.300
2023-05-31T11:21:20.086Z,2.850
2023-05-31T11:22:23.166Z,2.900
2023-05-31T11:23:33.903Z,2.650
2023-05-31T11:24:30.633Z,2.900
2023-05-31T11:25:24.074Z,2.600
2023-05-31T11:26:22.591Z,3.100
2023-05-31T11:27:30.995Z,2.950
2023-05-31T11:28:22.698Z,3.100
2023-05-31T11:29:24.751Z,2.800
2023-05-31T11:30:37.376Z,2.850
2023-05-31T11:31:33.212Z,3.100
2023-05-31T11:32:26.098Z,3.000
2023-05-31T11:33:39.580Z,2.850
2023-05-31T11:34:30.740Z,3.000
2023-05-31T11:35:27.367Z,2.950
2023-05-31T11:36:25.592Z,2.700
2023-05-31T11:37:33.795Z,2.850
2023-05-31T11:38:28.857Z,3.100
2023-05-31T11:39:20.708Z,3.050
2023-05-31T11:40:24.780Z,3.300
2023-05-31T11:41:32.694Z,3.250
2023-05-31T11:42:28.913Z,3.200
2023-05-31T11:43:22.746Z,3.300
2023-05-31T11:44:24.233Z,2.950
2023-05-31T11:45:28.869Z,2.900
2023-05-31T11:46:24.871Z,3.000
2023-05-31T11:47:20.985Z,2.850
2023-05-31T11:48:20.173Z,2.950
2023-05-31T11:49:28.346Z,3.300
2023-05-31T11:50:23.154Z,3.300
2023-05-31T11:51:28.842Z,2.900
2023-05-31T11:52:20.237Z,3.150
2023-05-31T11:53:26.908Z,3.300
2023-05-31T11:54:21.737Z,3.200
2023-05-31T11:55:25.667Z,3.200
2023-05-31T11:56:26.696Z,3.300
2023-05-31T11:57:22.770Z,3.200
2023-05-31T11:58:35.469Z,2.950
2023-05-31T11:59:25.386Z,3.000
2023-05-31T12:00:26.557Z,3.000
2023-05-31T12:01:20.810Z,3.000
2023-05-31T12:02:29.323Z,3.000
2023-05-31T12:03:23.094Z,3.000
2023-05-31T12:04:25.675Z,3.300
2023-05-31T12:05:36.384Z,2.900
2023-05-31T12:06:30.130Z,3.100
2023-05-31T12:07:21.652Z,2.900
2023-05-31T12:08:20.764Z,2.900
2023-05-31T12:09:32.934Z,3.100
2023-05-31T12:10:26.553Z,3.300
2023-05-31T12:11:22.647Z,3.000
2023-05-31T12:12:34.383Z,3.200
2023-05-31T12:13:29.136Z,3.300
2023-05-31T12:14:27.011Z,3.000
2023-05-31T12:15:23.622Z,3.200
2023-05-31T12:16:30.958Z,2.850
2023-05-31T12:17:30.752Z,3.100
2023-05-31T12:18:22.700Z,3.150
2023-05-31T12:19:44.032Z,2.900
2023-05-31T12:20:29.163Z,2.950
2023-05-31T12:21:25.988Z,3.000
2023-05-31T12:22:22.885Z,2.850
2023-05-31T12:23:30.693Z,2.850
2023-05-31T12:24:29.690Z,2.500
2023-05-31T12:25:22.716Z,2.800
2023-05-31T12:26:22.829Z,2.800
2023-05-31T12:27:41.166Z,3.100
2023-05-31T12:28:26.113Z,3.100
2023-05-31T12:29:20.628Z,3.050
2023-05-31T12:30:19.930Z,3.000
2023-05-31T12:31:29.822Z,3.200
2023-05-31T12:32:23.986Z,3.000
2023-05-31T12:33:26.442Z,2.750
2023-05-31T12:34:28.985Z,3.050
2023-05-31T12:35:26.822Z,2.700
2023-05-31T12:36:21.063Z,3.200
2023-05-31T12:37:23.972Z,2.900
2023-05-31T12:38:26.951Z,2.950
2023-05-31T12:39:25.851Z,3.100
2023-05-31T12:40:34.041Z,3.000
2023-05-31T12:41:19.416Z,2.800
2023-05-31T12:42:25.106Z,2.950
2023-05-31T12:43:22.678Z,2.900
2023-05-31T12:44:21.859Z,3.000
2023-05-31T12:45:23.310Z,3.100
2023-05-31T12:46:23.108Z,2.700
2023-05-31T12:47:32.798Z,2.800
2023-05-31T12:48:23.985Z,3.300
2023-05-31T12:49:26.177Z,3.000
2023-05-31T12:50:21.178Z,3.000
2023-05-31T12:51:26.509Z,2.900
2023-05-31T12:52:27.895Z,2.950
2023-05-31T12:53:23.787Z,3.150
2023-05-31T12:54:35.406Z,2.900
2023-05-31T12:55:19.790Z,2.600
2023-05-31T12:56:21.813Z,3.200
2023-05-31T12:57:21.265Z,3.050
2023-05-31T12:58:30.993Z,2.900
2023-05-31T12:59:26.882Z,2.950
2023-05-31T13:00:39.873Z,3.200
2023-05-31T13:01:38.925Z,2.900